Kyle Murphy is a cyclist from USA (born October 5th 1991), who currently rides for Human Powered Health (UCI ProTeam).

Information

2022 2021 2020 2019 2018 2017 2016 2015 2014 2013

UCI?
Rally UHC Cycling (Pro Continental) UCI Ranking: 535 (153pts) UCI: Race days: 53 UCI: Distance: 8.074km
Date Pos GC Race UCI
22.09 DNF GP d'Isbergues | 1.1 2019-09-22Show more
18.09 59 GP de Wallonie | 1.1 2019-09-18Show more
18.08 Tour of Utah | 2.HC 2019-08-18 Show more
18.08 6 Tour of Utah | Overall 2019-08-1870
13.07 7 Capital Region RR | NE 2019-07-13Show more
23.06 Tour de Beauce | 2.2 2019-06-23 Show more
23.06 6 Tour de Beauce | Overall 2019-06-2310
30.06 DNF USA RR | CN 2019-06-30Show more
28.06 52 USA Criterium | CN 2019-06-28Show more
27.06 32 USA ITT | CN 2019-06-27Show more
25.09 DNF Omloop van het Houtland | 1.1 2019-09-25Show more
29.09 DNF Paris-Chauny | 1.1 2019-09-29Show more
13.10 DNF Paris - Tours | 1.HC 2019-10-13Show more
10.10 118 Paris - Bourges | 1.1 2019-10-10Show more
06.10 DNF Famenne Ardenne Classic | 1.1 2019-10-06Show more
05.10 DNF Circuit Franco-Belge | 1.HC 2019-10-05Show more
03.10 DNF Munsterland Giro | 1.HC 2019-10-03Show more
18.05 Tour of California | 2.UWT 2019-05-18 Show more
18.05 30 Tour of California | Overall 2019-05-1812
06.04 Giro di Sicilia | 2.1 2019-04-06 Show more
06.04 57 Giro di Sicilia | Overall 2019-04-06
21.04 Tour of Türkiye | 2.UWT 2019-04-21 Show more
21.04 10 Tour of Türkiye | Overall 2019-04-2150
16.02 Vuelta a Murcia | 2.1 2019-02-16 Show more
16.02 41 Vuelta a Murcia | Overall 2019-02-16
10.02 Volta Comunitat Valenciana | 2.1 2019-02-10 Show more
10.02 138 Volta Comunitat Valenciana | Overall 2019-02-10
24.02 Vuelta a Andalucía | 2.HC 2019-02-24 Show more
24.02 97 Vuelta a Andalucía | Overall 2019-02-24
03.03 85 La Drome Classic | 1.1 2019-03-03Show more
02.03 48 Faun-Ardèche Classic | 1.1 2019-03-02Show more
23.06 9 Tour de Beauce | Points 2019-06-23
21.04 28 Tour of Türkiye | Points 2019-04-21
18.08 11 Tour of Utah | Points 2019-08-18
18.08 8 Tour of Utah | Mountain 2019-08-18
23.06 7 Tour de Beauce | Mountain 2019-06-23
18.08 8 6 Tour of Utah | 6th stage 2019-08-18
17.08 17 4 Tour of Utah | 5th stage 2019-08-17
16.08 14 4 Tour of Utah | 4th stage 2019-08-16
15.08 2 4 Tour of Utah | 3rd stage 2019-08-1510
14.08 6 6 Tour of Utah | 2nd stage 2019-08-14
13.08 37 4 Tour of Utah | 1st stage 2019-08-13
12.08 5 5 Tour of Utah | Prologue 2019-08-12
23.06 5 6 Tour de Beauce | 6th stage 2019-06-23
22.06 21 7 Tour de Beauce | 5th stage 2019-06-22
21.06 14 7 Tour de Beauce | 4th stage 2019-06-21
21.06 10 7 Tour de Beauce | 3rd stage 2019-06-21
20.06 3 6 Tour de Beauce | 2nd stage 2019-06-201
19.06 23 23 Tour de Beauce | 1st stage 2019-06-19
18.05 92 30 Tour of California | 7th stage 2019-05-18
17.05 25 24 Tour of California | 6th stage 2019-05-17
16.05 47 23 Tour of California | 5th stage 2019-05-16
15.05 55 26 Tour of California | 4th stage 2019-05-15
14.05 25 27 Tour of California | 3rd stage 2019-05-14
13.05 28 27 Tour of California | 2nd stage 2019-05-13
12.05 63 65 Tour of California | 1st stage 2019-05-12
21.04 47 10 Tour of Türkiye | 6th stage 2019-04-21
20.04 7 10 Tour of Türkiye | 5th stage 2019-04-20
19.04 21 33 Tour of Türkiye | 4th stage 2019-04-19
18.04 96 41 Tour of Türkiye | 3rd stage 2019-04-18
17.04 31 38 Tour of Türkiye | 2nd stage 2019-04-17
16.04 94 95 Tour of Türkiye | 1st stage 2019-04-16
06.04 32 57 Giro di Sicilia | 4th stage 2019-04-06
05.04 70 93 Giro di Sicilia | 3rd stage 2019-04-05
04.04 65 97 Giro di Sicilia | 2nd stage 2019-04-04
03.04 105 105 Giro di Sicilia | 1st stage 2019-04-03
24.02 113 97 Vuelta a Andalucía | 5th stage 2019-02-24
23.02 42 90 Vuelta a Andalucía | 4th stage 2019-02-23
22.02 90 112 Vuelta a Andalucía | 3rd stage 2019-02-22
21.02 105 111 Vuelta a Andalucía | 2nd stage 2019-02-21
20.02 122 122 Vuelta a Andalucía | 1st stage 2019-02-20
16.02 24 41 Vuelta a Murcia | 2nd stage 2019-02-16
15.02 90 90 Vuelta a Murcia | 1st stage 2019-02-15
10.02 149 138 Volta Comunitat Valenciana | 5th stage 2019-02-10
09.02 142 141 Volta Comunitat Valenciana | 4th stage 2019-02-09
08.02 136 141 Volta Comunitat Valenciana | 3rd stage 2019-02-08
07.02 150 139 Volta Comunitat Valenciana | 2nd stage 2019-02-07
06.02 92 92 Volta Comunitat Valenciana | 1st stage 2019-02-06